Terminal Aerodrome Forecast
Issued by NWS

Home | Current Version | Previous Version | Text Only | Print | Product List | Glossary On
Versions: 1 2 3 4 5 6 7 8 9 10 11 12 13
069
FTUS45 KVEF 252326
TAFBIH
TAF
KBIH 252326Z 2600/2624 17012G17KT P6SM SCT120 BKN150
     FM260400 34010KT P6SM SCT200
     FM261500 VRB06KT P6SM SCT200
     FM261800 17011G19KT P6SM BKN200=

USA.gov is the U.S. government's official web portal to all federal, state and local government web resources and services.